sensor_id;sensor_type;location;lat;lon;timestamp;P1;durP1;ratioP1;P2;durP2;ratioP2
52166;SDS011;38149;52.666;6.428;2023-11-18T00:01:52;0.30;;;0.30;;
52166;SDS011;38149;52.666;6.428;2023-11-18T00:04:18;0.30;;;0.30;;
52166;SDS011;38149;52.666;6.428;2023-11-18T00:06:44;0.30;;;0.30;;
52166;SDS011;38149;52.666;6.428;2023-11-18T00:09:13;0.30;;;0.30;;
52166;SDS011;38149;52.666;6.428;2023-11-18T00:11:40;0.30;;;0.30;;
52166;SDS011;38149;52.666;6.428;2023-11-18T00:14:07;0.30;;;0.30;;
52166;SDS011;38149;52.666;6.428;2023-11-18T00:16:35;0.30;;;0.30;;
52166;SDS011;38149;52.666;6.428;2023-11-18T00:19:01;0.30;;;0.30;;
52166;SDS011;38149;52.666;6.428;2023-11-18T00:21:30;0.30;;;0.30;;
52166;SDS011;38149;52.666;6.428;2023-11-18T00:23:56;0.30;;;0.30;;
52166;SDS011;38149;52.666;6.428;2023-11-18T00:26:22;0.30;;;0.30;;
52166;SDS011;38149;52.666;6.428;2023-11-18T00:28:49;0.30;;;0.30;;
52166;SDS011;38149;52.666;6.428;2023-11-18T00:31:15;0.30;;;0.30;;
52166;SDS011;38149;52.666;6.428;2023-11-18T00:33:41;0.30;;;0.30;;
52166;SDS011;38149;52.666;6.428;2023-11-18T00:36:07;0.30;;;0.30;;
52166;SDS011;38149;52.666;6.428;2023-11-18T00:38:37;0.30;;;0.30;;
52166;SDS011;38149;52.666;6.428;2023-11-18T00:41:03;0.30;;;0.30;;
52166;SDS011;38149;52.666;6.428;2023-11-18T00:43:31;0.30;;;0.30;;
52166;SDS011;38149;52.666;6.428;2023-11-18T00:45:57;0.30;;;0.30;;
52166;SDS011;38149;52.666;6.428;2023-11-18T00:48:24;0.30;;;0.30;;
52166;SDS011;38149;52.666;6.428;2023-11-18T00:50:50;0.30;;;0.30;;
52166;SDS011;38149;52.666;6.428;2023-11-18T00:53:17;0.30;;;0.30;;
52166;SDS011;38149;52.666;6.428;2023-11-18T00:55:43;0.30;;;0.30;;
52166;SDS011;38149;52.666;6.428;2023-11-18T00:58:10;0.30;;;0.30;;
52166;SDS011;38149;52.666;6.428;2023-11-18T01:00:36;0.30;;;0.30;;
52166;SDS011;38149;52.666;6.428;2023-11-18T01:03:02;0.30;;;0.30;;
52166;SDS011;38149;52.666;6.428;2023-11-18T01:05:28;0.30;;;0.30;;
52166;SDS011;38149;52.666;6.428;2023-11-18T01:07:56;0.30;;;0.30;;
52166;SDS011;38149;52.666;6.428;2023-11-18T01:10:23;0.32;;;0.32;;
52166;SDS011;38149;52.666;6.428;2023-11-18T01:12:49;0.30;;;0.30;;
52166;SDS011;38149;52.666;6.428;2023-11-18T01:15:15;0.30;;;0.30;;
52166;SDS011;38149;52.666;6.428;2023-11-18T01:17:41;0.30;;;0.30;;
52166;SDS011;38149;52.666;6.428;2023-11-18T01:20:08;0.40;;;0.40;;
52166;SDS011;38149;52.666;6.428;2023-11-18T01:22:36;0.30;;;0.30;;
52166;SDS011;38149;52.666;6.428;2023-11-18T01:25:03;0.30;;;0.30;;
52166;SDS011;38149;52.666;6.428;2023-11-18T01:27:30;0.30;;;0.30;;
52166;SDS011;38149;52.666;6.428;2023-11-18T01:29:59;0.30;;;0.30;;
52166;SDS011;38149;52.666;6.428;2023-11-18T01:32:25;0.30;;;0.30;;
52166;SDS011;38149;52.666;6.428;2023-11-18T01:34:51;0.30;;;0.30;;
52166;SDS011;38149;52.666;6.428;2023-11-18T01:37:18;0.30;;;0.30;;
52166;SDS011;38149;52.666;6.428;2023-11-18T01:39:46;0.50;;;0.50;;
52166;SDS011;38149;52.666;6.428;2023-11-18T01:42:12;0.30;;;0.30;;
52166;SDS011;38149;52.666;6.428;2023-11-18T01:44:38;0.30;;;0.30;;
52166;SDS011;38149;52.666;6.428;2023-11-18T01:47:05;0.30;;;0.30;;
52166;SDS011;38149;52.666;6.428;2023-11-18T01:49:35;0.30;;;0.30;;
52166;SDS011;38149;52.666;6.428;2023-11-18T01:52:05;0.30;;;0.30;;
52166;SDS011;38149;52.666;6.428;2023-11-18T01:54:35;0.30;;;0.30;;
52166;SDS011;38149;52.666;6.428;2023-11-18T01:57:05;0.30;;;0.30;;
52166;SDS011;38149;52.666;6.428;2023-11-18T01:59:32;0.30;;;0.30;;
52166;SDS011;38149;52.666;6.428;2023-11-18T02:01:59;0.30;;;0.30;;
52166;SDS011;38149;52.666;6.428;2023-11-18T02:04:26;0.30;;;0.30;;
52166;SDS011;38149;52.666;6.428;2023-11-18T02:06:53;0.30;;;0.30;;
52166;SDS011;38149;52.666;6.428;2023-11-18T02:09:20;0.30;;;0.30;;
52166;SDS011;38149;52.666;6.428;2023-11-18T02:12:00;0.30;;;0.30;;
52166;SDS011;38149;52.666;6.428;2023-11-18T02:14:42;0.30;;;0.30;;
52166;SDS011;38149;52.666;6.428;2023-11-18T02:17:10;0.30;;;0.30;;
52166;SDS011;38149;52.666;6.428;2023-11-18T02:19:39;0.30;;;0.30;;
52166;SDS011;38149;52.666;6.428;2023-11-18T02:22:06;0.30;;;0.30;;
52166;SDS011;38149;52.666;6.428;2023-11-18T02:24:33;0.30;;;0.30;;
52166;SDS011;38149;52.666;6.428;2023-11-18T02:27:02;0.30;;;0.30;;
52166;SDS011;38149;52.666;6.428;2023-11-18T02:29:33;0.30;;;0.30;;
52166;SDS011;38149;52.666;6.428;2023-11-18T02:32:03;0.30;;;0.30;;
52166;SDS011;38149;52.666;6.428;2023-11-18T02:34:54;0.30;;;0.30;;
52166;SDS011;38149;52.666;6.428;2023-11-18T02:37:43;0.30;;;0.30;;
52166;SDS011;38149;52.666;6.428;2023-11-18T02:40:19;0.30;;;0.30;;
52166;SDS011;38149;52.666;6.428;2023-11-18T02:42:49;0.30;;;0.30;;
52166;SDS011;38149;52.666;6.428;2023-11-18T02:45:18;0.30;;;0.30;;
52166;SDS011;38149;52.666;6.428;2023-11-18T02:47:45;0.30;;;0.30;;
52166;SDS011;38149;52.666;6.428;2023-11-18T02:50:11;0.30;;;0.30;;
52166;SDS011;38149;52.666;6.428;2023-11-18T02:52:38;0.30;;;0.30;;
52166;SDS011;38149;52.666;6.428;2023-11-18T02:55:05;0.30;;;0.30;;
52166;SDS011;38149;52.666;6.428;2023-11-18T02:57:32;0.30;;;0.30;;
52166;SDS011;38149;52.666;6.428;2023-11-18T02:59:59;0.30;;;0.30;;
52166;SDS011;38149;52.666;6.428;2023-11-18T03:02:26;0.30;;;0.30;;
52166;SDS011;38149;52.666;6.428;2023-11-18T03:04:56;0.30;;;0.30;;
52166;SDS011;38149;52.666;6.428;2023-11-18T03:07:22;0.30;;;0.30;;
52166;SDS011;38149;52.666;6.428;2023-11-18T03:09:48;0.30;;;0.30;;
52166;SDS011;38149;52.666;6.428;2023-11-18T03:12:14;0.30;;;0.30;;
52166;SDS011;38149;52.666;6.428;2023-11-18T03:14:41;0.30;;;0.30;;
52166;SDS011;38149;52.666;6.428;2023-11-18T03:17:07;0.30;;;0.30;;
52166;SDS011;38149;52.666;6.428;2023-11-18T03:19:35;0.30;;;0.30;;
52166;SDS011;38149;52.666;6.428;2023-11-18T03:22:01;0.30;;;0.30;;
52166;SDS011;38149;52.666;6.428;2023-11-18T03:24:28;0.30;;;0.30;;
52166;SDS011;38149;52.666;6.428;2023-11-18T03:26:54;0.30;;;0.30;;
52166;SDS011;38149;52.666;6.428;2023-11-18T03:29:21;0.30;;;0.30;;
52166;SDS011;38149;52.666;6.428;2023-11-18T03:31:48;0.30;;;0.30;;
52166;SDS011;38149;52.666;6.428;2023-11-18T03:34:15;0.30;;;0.30;;
52166;SDS011;38149;52.666;6.428;2023-11-18T03:36:41;0.40;;;0.40;;
52166;SDS011;38149;52.666;6.428;2023-11-18T03:39:09;0.40;;;0.40;;
52166;SDS011;38149;52.666;6.428;2023-11-18T03:41:36;0.30;;;0.30;;
52166;SDS011;38149;52.666;6.428;2023-11-18T03:44:03;0.30;;;0.30;;
52166;SDS011;38149;52.666;6.428;2023-11-18T03:46:29;0.30;;;0.30;;
52166;SDS011;38149;52.666;6.428;2023-11-18T03:48:59;0.30;;;0.30;;
52166;SDS011;38149;52.666;6.428;2023-11-18T03:51:26;0.30;;;0.30;;
52166;SDS011;38149;52.666;6.428;2023-11-18T03:53:53;0.30;;;0.30;;
52166;SDS011;38149;52.666;6.428;2023-11-18T03:56:19;0.30;;;0.30;;
52166;SDS011;38149;52.666;6.428;2023-11-18T03:58:45;0.22;;;0.22;;
52166;SDS011;38149;52.666;6.428;2023-11-18T04:01:20;0.30;;;0.30;;
52166;SDS011;38149;52.666;6.428;2023-11-18T04:03:47;0.30;;;0.30;;
52166;SDS011;38149;52.666;6.428;2023-11-18T04:06:14;0.30;;;0.30;;
52166;SDS011;38149;52.666;6.428;2023-11-18T04:08:44;0.30;;;0.30;;
52166;SDS011;38149;52.666;6.428;2023-11-18T04:11:11;0.30;;;0.30;;
52166;SDS011;38149;52.666;6.428;2023-11-18T04:13:39;0.30;;;0.30;;
52166;SDS011;38149;52.666;6.428;2023-11-18T04:16:09;0.30;;;0.30;;
52166;SDS011;38149;52.666;6.428;2023-11-18T04:18:38;0.20;;;0.20;;
52166;SDS011;38149;52.666;6.428;2023-11-18T04:21:06;0.30;;;0.30;;
52166;SDS011;38149;52.666;6.428;2023-11-18T04:23:33;0.30;;;0.30;;
52166;SDS011;38149;52.666;6.428;2023-11-18T04:26:02;0.30;;;0.30;;
52166;SDS011;38149;52.666;6.428;2023-11-18T04:28:28;0.30;;;0.30;;
52166;SDS011;38149;52.666;6.428;2023-11-18T04:30:55;0.20;;;0.20;;
52166;SDS011;38149;52.666;6.428;2023-11-18T04:33:21;0.30;;;0.30;;
52166;SDS011;38149;52.666;6.428;2023-11-18T04:35:49;0.20;;;0.20;;
52166;SDS011;38149;52.666;6.428;2023-11-18T04:38:18;0.22;;;0.22;;
52166;SDS011;38149;52.666;6.428;2023-11-18T04:40:45;0.20;;;0.20;;
52166;SDS011;38149;52.666;6.428;2023-11-18T04:43:11;0.30;;;0.30;;
52166;SDS011;38149;52.666;6.428;2023-11-18T04:45:37;0.30;;;0.30;;
52166;SDS011;38149;52.666;6.428;2023-11-18T04:48:04;0.30;;;0.30;;
52166;SDS011;38149;52.666;6.428;2023-11-18T04:50:31;0.20;;;0.20;;
52166;SDS011;38149;52.666;6.428;2023-11-18T04:52:58;0.30;;;0.30;;
52166;SDS011;38149;52.666;6.428;2023-11-18T04:55:24;0.30;;;0.30;;
52166;SDS011;38149;52.666;6.428;2023-11-18T04:57:53;0.30;;;0.30;;
52166;SDS011;38149;52.666;6.428;2023-11-18T05:00:19;0.22;;;0.22;;
52166;SDS011;38149;52.666;6.428;2023-11-18T05:02:46;0.30;;;0.30;;
52166;SDS011;38149;52.666;6.428;2023-11-18T05:05:13;0.32;;;0.32;;
52166;SDS011;38149;52.666;6.428;2023-11-18T05:07:40;0.30;;;0.30;;
52166;SDS011;38149;52.666;6.428;2023-11-18T05:10:07;0.30;;;0.30;;
52166;SDS011;38149;52.666;6.428;2023-11-18T05:12:34;0.30;;;0.30;;
52166;SDS011;38149;52.666;6.428;2023-11-18T05:15:01;0.20;;;0.20;;
52166;SDS011;38149;52.666;6.428;2023-11-18T05:17:29;0.30;;;0.30;;
52166;SDS011;38149;52.666;6.428;2023-11-18T05:19:56;0.30;;;0.30;;
52166;SDS011;38149;52.666;6.428;2023-11-18T05:22:22;0.30;;;0.30;;
52166;SDS011;38149;52.666;6.428;2023-11-18T05:24:48;0.30;;;0.30;;
52166;SDS011;38149;52.666;6.428;2023-11-18T05:27:14;0.30;;;0.30;;
52166;SDS011;38149;52.666;6.428;2023-11-18T05:29:42;0.30;;;0.30;;
52166;SDS011;38149;52.666;6.428;2023-11-18T05:32:12;0.28;;;0.28;;
52166;SDS011;38149;52.666;6.428;2023-11-18T05:34:38;0.20;;;0.20;;
52166;SDS011;38149;52.666;6.428;2023-11-18T05:37:05;0.20;;;0.20;;
52166;SDS011;38149;52.666;6.428;2023-11-18T05:39:31;0.30;;;0.30;;
52166;SDS011;38149;52.666;6.428;2023-11-18T05:41:58;0.30;;;0.30;;
52166;SDS011;38149;52.666;6.428;2023-11-18T05:44:24;0.20;;;0.20;;
52166;SDS011;38149;52.666;6.428;2023-11-18T05:47:02;0.30;;;0.30;;
52166;SDS011;38149;52.666;6.428;2023-11-18T05:49:28;0.20;;;0.20;;
52166;SDS011;38149;52.666;6.428;2023-11-18T05:51:54;0.30;;;0.30;;
52166;SDS011;38149;52.666;6.428;2023-11-18T05:54:21;0.30;;;0.30;;
52166;SDS011;38149;52.666;6.428;2023-11-18T05:56:47;0.30;;;0.30;;
52166;SDS011;38149;52.666;6.428;2023-11-18T05:59:13;0.30;;;0.30;;
52166;SDS011;38149;52.666;6.428;2023-11-18T06:01:39;0.30;;;0.30;;
52166;SDS011;38149;52.666;6.428;2023-11-18T06:04:06;0.20;;;0.20;;
52166;SDS011;38149;52.666;6.428;2023-11-18T06:06:35;0.30;;;0.30;;
52166;SDS011;38149;52.666;6.428;2023-11-18T06:09:02;0.20;;;0.20;;
52166;SDS011;38149;52.666;6.428;2023-11-18T06:11:34;0.30;;;0.30;;
52166;SDS011;38149;52.666;6.428;2023-11-18T06:14:00;0.30;;;0.30;;
52166;SDS011;38149;52.666;6.428;2023-11-18T06:16:27;0.30;;;0.30;;
52166;SDS011;38149;52.666;6.428;2023-11-18T06:18:54;0.20;;;0.20;;
52166;SDS011;38149;52.666;6.428;2023-11-18T06:21:23;0.28;;;0.28;;
52166;SDS011;38149;52.666;6.428;2023-11-18T06:23:53;0.30;;;0.30;;
52166;SDS011;38149;52.666;6.428;2023-11-18T06:26:22;0.30;;;0.30;;
52166;SDS011;38149;52.666;6.428;2023-11-18T06:29:00;0.30;;;0.30;;
52166;SDS011;38149;52.666;6.428;2023-11-18T06:31:27;0.30;;;0.30;;
52166;SDS011;38149;52.666;6.428;2023-11-18T06:33:54;0.20;;;0.20;;
52166;SDS011;38149;52.666;6.428;2023-11-18T06:36:21;0.20;;;0.20;;
52166;SDS011;38149;52.666;6.428;2023-11-18T06:38:49;0.20;;;0.20;;
52166;SDS011;38149;52.666;6.428;2023-11-18T06:41:20;0.20;;;0.20;;
52166;SDS011;38149;52.666;6.428;2023-11-18T06:43:58;0.30;;;0.30;;
52166;SDS011;38149;52.666;6.428;2023-11-18T06:46:31;0.20;;;0.20;;
52166;SDS011;38149;52.666;6.428;2023-11-18T06:49:02;0.20;;;0.20;;
52166;SDS011;38149;52.666;6.428;2023-11-18T06:51:29;0.30;;;0.30;;
52166;SDS011;38149;52.666;6.428;2023-11-18T06:53:58;0.20;;;0.20;;
52166;SDS011;38149;52.666;6.428;2023-11-18T06:56:24;0.30;;;0.30;;
52166;SDS011;38149;52.666;6.428;2023-11-18T06:58:51;0.30;;;0.30;;
52166;SDS011;38149;52.666;6.428;2023-11-18T07:01:18;0.20;;;0.20;;
52166;SDS011;38149;52.666;6.428;2023-11-18T07:03:44;0.20;;;0.20;;
52166;SDS011;38149;52.666;6.428;2023-11-18T07:06:16;0.30;;;0.30;;
52166;SDS011;38149;52.666;6.428;2023-11-18T07:08:47;0.20;;;0.20;;
52166;SDS011;38149;52.666;6.428;2023-11-18T07:11:14;0.20;;;0.20;;
52166;SDS011;38149;52.666;6.428;2023-11-18T07:13:41;0.20;;;0.20;;
52166;SDS011;38149;52.666;6.428;2023-11-18T07:16:07;0.20;;;0.20;;
52166;SDS011;38149;52.666;6.428;2023-11-18T07:18:37;0.20;;;0.20;;
52166;SDS011;38149;52.666;6.428;2023-11-18T07:21:03;0.20;;;0.20;;
52166;SDS011;38149;52.666;6.428;2023-11-18T07:23:33;0.20;;;0.20;;
52166;SDS011;38149;52.666;6.428;2023-11-18T07:25:59;0.20;;;0.20;;
52166;SDS011;38149;52.666;6.428;2023-11-18T07:28:26;0.30;;;0.30;;
52166;SDS011;38149;52.666;6.428;2023-11-18T07:30:52;0.30;;;0.30;;
52166;SDS011;38149;52.666;6.428;2023-11-18T07:33:18;0.25;;;0.25;;
52166;SDS011;38149;52.666;6.428;2023-11-18T07:35:45;0.20;;;0.20;;
52166;SDS011;38149;52.666;6.428;2023-11-18T07:38:13;0.20;;;0.20;;
52166;SDS011;38149;52.666;6.428;2023-11-18T07:40:39;0.30;;;0.30;;
52166;SDS011;38149;52.666;6.428;2023-11-18T07:43:10;0.30;;;0.30;;
52166;SDS011;38149;52.666;6.428;2023-11-18T07:45:37;0.25;;;0.25;;
52166;SDS011;38149;52.666;6.428;2023-11-18T07:48:05;0.20;;;0.20;;
52166;SDS011;38149;52.666;6.428;2023-11-18T07:50:35;0.20;;;0.20;;
52166;SDS011;38149;52.666;6.428;2023-11-18T07:53:01;0.30;;;0.30;;
52166;SDS011;38149;52.666;6.428;2023-11-18T07:55:28;0.30;;;0.30;;
52166;SDS011;38149;52.666;6.428;2023-11-18T07:57:54;0.20;;;0.20;;
52166;SDS011;38149;52.666;6.428;2023-11-18T08:00:21;0.20;;;0.20;;
52166;SDS011;38149;52.666;6.428;2023-11-18T08:02:49;0.20;;;0.20;;
52166;SDS011;38149;52.666;6.428;2023-11-18T08:05:19;0.20;;;0.20;;
52166;SDS011;38149;52.666;6.428;2023-11-18T08:07:48;0.20;;;0.20;;
52166;SDS011;38149;52.666;6.428;2023-11-18T08:10:14;0.20;;;0.20;;
52166;SDS011;38149;52.666;6.428;2023-11-18T08:12:44;0.20;;;0.20;;
52166;SDS011;38149;52.666;6.428;2023-11-18T08:15:10;0.20;;;0.20;;
52166;SDS011;38149;52.666;6.428;2023-11-18T08:17:36;0.30;;;0.30;;
52166;SDS011;38149;52.666;6.428;2023-11-18T08:20:02;0.20;;;0.20;;
52166;SDS011;38149;52.666;6.428;2023-11-18T08:22:39;0.30;;;0.30;;
52166;SDS011;38149;52.666;6.428;2023-11-18T08:25:06;0.20;;;0.20;;
52166;SDS011;38149;52.666;6.428;2023-11-18T08:27:33;0.20;;;0.20;;
52166;SDS011;38149;52.666;6.428;2023-11-18T08:30:00;0.30;;;0.30;;
52166;SDS011;38149;52.666;6.428;2023-11-18T08:32:31;0.20;;;0.20;;
52166;SDS011;38149;52.666;6.428;2023-11-18T08:34:57;0.20;;;0.20;;
52166;SDS011;38149;52.666;6.428;2023-11-18T08:37:23;0.20;;;0.20;;
52166;SDS011;38149;52.666;6.428;2023-11-18T08:39:49;0.20;;;0.20;;
52166;SDS011;38149;52.666;6.428;2023-11-18T08:42:15;0.20;;;0.20;;
52166;SDS011;38149;52.666;6.428;2023-11-18T08:44:41;0.20;;;0.20;;
52166;SDS011;38149;52.666;6.428;2023-11-18T08:47:08;0.20;;;0.20;;
52166;SDS011;38149;52.666;6.428;2023-11-18T08:49:34;0.20;;;0.20;;
52166;SDS011;38149;52.666;6.428;2023-11-18T08:52:02;0.20;;;0.20;;
52166;SDS011;38149;52.666;6.428;2023-11-18T08:54:35;0.20;;;0.20;;
52166;SDS011;38149;52.666;6.428;2023-11-18T08:57:24;0.20;;;0.20;;
52166;SDS011;38149;52.666;6.428;2023-11-18T08:59:50;0.20;;;0.20;;
52166;SDS011;38149;52.666;6.428;2023-11-18T09:02:19;0.20;;;0.20;;
52166;SDS011;38149;52.666;6.428;2023-11-18T09:04:49;0.20;;;0.20;;
52166;SDS011;38149;52.666;6.428;2023-11-18T09:07:15;0.20;;;0.20;;
52166;SDS011;38149;52.666;6.428;2023-11-18T09:09:43;0.20;;;0.20;;
52166;SDS011;38149;52.666;6.428;2023-11-18T09:12:11;0.20;;;0.20;;
52166;SDS011;38149;52.666;6.428;2023-11-18T09:14:39;0.20;;;0.20;;
52166;SDS011;38149;52.666;6.428;2023-11-18T09:17:07;0.20;;;0.20;;
52166;SDS011;38149;52.666;6.428;2023-11-18T09:19:34;0.20;;;0.20;;
52166;SDS011;38149;52.666;6.428;2023-11-18T09:22:00;0.20;;;0.20;;
52166;SDS011;38149;52.666;6.428;2023-11-18T09:24:26;0.20;;;0.20;;
52166;SDS011;38149;52.666;6.428;2023-11-18T09:26:52;0.20;;;0.20;;
52166;SDS011;38149;52.666;6.428;2023-11-18T09:29:20;0.20;;;0.20;;
52166;SDS011;38149;52.666;6.428;2023-11-18T09:31:49;0.20;;;0.20;;
52166;SDS011;38149;52.666;6.428;2023-11-18T09:34:17;0.20;;;0.20;;
52166;SDS011;38149;52.666;6.428;2023-11-18T09:36:51;0.20;;;0.20;;
52166;SDS011;38149;52.666;6.428;2023-11-18T09:39:20;0.20;;;0.20;;
52166;SDS011;38149;52.666;6.428;2023-11-18T09:42:02;0.20;;;0.20;;
52166;SDS011;38149;52.666;6.428;2023-11-18T09:44:33;0.22;;;0.22;;
52166;SDS011;38149;52.666;6.428;2023-11-18T09:47:02;0.20;;;0.20;;
52166;SDS011;38149;52.666;6.428;2023-11-18T09:49:37;0.20;;;0.20;;
52166;SDS011;38149;52.666;6.428;2023-11-18T09:52:09;0.20;;;0.20;;
52166;SDS011;38149;52.666;6.428;2023-11-18T09:55:04;0.20;;;0.20;;
52166;SDS011;38149;52.666;6.428;2023-11-18T09:57:34;0.20;;;0.20;;
52166;SDS011;38149;52.666;6.428;2023-11-18T10:00:05;0.20;;;0.20;;
52166;SDS011;38149;52.666;6.428;2023-11-18T10:05:17;0.20;;;0.20;;
52166;SDS011;38149;52.666;6.428;2023-11-18T10:07:47;0.20;;;0.20;;
52166;SDS011;38149;52.666;6.428;2023-11-18T10:10:14;0.30;;;0.30;;
52166;SDS011;38149;52.666;6.428;2023-11-18T10:12:44;0.20;;;0.20;;
52166;SDS011;38149;52.666;6.428;2023-11-18T10:15:11;0.20;;;0.20;;
52166;SDS011;38149;52.666;6.428;2023-11-18T10:17:41;0.20;;;0.20;;
52166;SDS011;38149;52.666;6.428;2023-11-18T10:23:09;0.20;;;0.20;;
52166;SDS011;38149;52.666;6.428;2023-11-18T10:25:52;0.20;;;0.20;;
52166;SDS011;38149;52.666;6.428;2023-11-18T10:28:23;0.20;;;0.20;;
52166;SDS011;38149;52.666;6.428;2023-11-18T10:31:00;0.20;;;0.20;;
52166;SDS011;38149;52.666;6.428;2023-11-18T10:33:30;0.20;;;0.20;;
52166;SDS011;38149;52.666;6.428;2023-11-18T10:35:57;0.20;;;0.20;;
52166;SDS011;38149;52.666;6.428;2023-11-18T10:38:28;0.20;;;0.20;;
52166;SDS011;38149;52.666;6.428;2023-11-18T10:40:55;0.20;;;0.20;;
52166;SDS011;38149;52.666;6.428;2023-11-18T10:43:23;0.20;;;0.20;;
52166;SDS011;38149;52.666;6.428;2023-11-18T10:45:54;0.20;;;0.20;;
52166;SDS011;38149;52.666;6.428;2023-11-18T10:48:36;0.20;;;0.20;;
52166;SDS011;38149;52.666;6.428;2023-11-18T10:51:06;0.20;;;0.20;;
52166;SDS011;38149;52.666;6.428;2023-11-18T10:53:33;0.25;;;0.25;;
52166;SDS011;38149;52.666;6.428;2023-11-18T10:56:03;0.20;;;0.20;;
52166;SDS011;38149;52.666;6.428;2023-11-18T10:58:36;0.20;;;0.20;;
52166;SDS011;38149;52.666;6.428;2023-11-18T11:01:06;0.20;;;0.20;;
52166;SDS011;38149;52.666;6.428;2023-11-18T11:03:54;0.20;;;0.20;;
52166;SDS011;38149;52.666;6.428;2023-11-18T11:06:22;0.20;;;0.20;;
52166;SDS011;38149;52.666;6.428;2023-11-18T11:08:49;0.20;;;0.20;;
52166;SDS011;38149;52.666;6.428;2023-11-18T11:11:19;0.20;;;0.20;;
52166;SDS011;38149;52.666;6.428;2023-11-18T11:13:55;0.20;;;0.20;;
52166;SDS011;38149;52.666;6.428;2023-11-18T11:16:23;0.20;;;0.20;;
52166;SDS011;38149;52.666;6.428;2023-11-18T11:22:04;0.20;;;0.20;;
52166;SDS011;38149;52.666;6.428;2023-11-18T11:25:19;0.20;;;0.20;;
52166;SDS011;38149;52.666;6.428;2023-11-18T11:27:33;0.20;;;0.20;;
52166;SDS011;38149;52.666;6.428;2023-11-18T11:30:12;0.20;;;0.20;;
52166;SDS011;38149;52.666;6.428;2023-11-18T11:35:23;0.20;;;0.20;;
52166;SDS011;38149;52.666;6.428;2023-11-18T11:37:56;0.20;;;0.20;;
52166;SDS011;38149;52.666;6.428;2023-11-18T11:40:29;0.20;;;0.20;;
52166;SDS011;38149;52.666;6.428;2023-11-18T11:42:56;0.20;;;0.20;;
52166;SDS011;38149;52.666;6.428;2023-11-18T11:45:23;0.20;;;0.20;;
52166;SDS011;38149;52.666;6.428;2023-11-18T11:47:53;0.20;;;0.20;;
52166;SDS011;38149;52.666;6.428;2023-11-18T11:50:38;0.20;;;0.20;;
52166;SDS011;38149;52.666;6.428;2023-11-18T11:53:20;0.20;;;0.20;;
52166;SDS011;38149;52.666;6.428;2023-11-18T11:55:49;0.20;;;0.20;;
52166;SDS011;38149;52.666;6.428;2023-11-18T11:58:29;0.20;;;0.20;;
52166;SDS011;38149;52.666;6.428;2023-11-18T12:00:58;0.20;;;0.20;;
52166;SDS011;38149;52.666;6.428;2023-11-18T12:03:26;0.20;;;0.20;;
52166;SDS011;38149;52.666;6.428;2023-11-18T12:06:01;0.20;;;0.20;;
52166;SDS011;38149;52.666;6.428;2023-11-18T12:08:34;0.20;;;0.20;;
52166;SDS011;38149;52.666;6.428;2023-11-18T12:11:02;0.20;;;0.20;;
52166;SDS011;38149;52.666;6.428;2023-11-18T12:13:30;0.20;;;0.20;;
52166;SDS011;38149;52.666;6.428;2023-11-18T12:15:59;0.20;;;0.20;;
52166;SDS011;38149;52.666;6.428;2023-11-18T12:21:02;0.20;;;0.20;;
52166;SDS011;38149;52.666;6.428;2023-11-18T12:23:29;0.20;;;0.20;;
52166;SDS011;38149;52.666;6.428;2023-11-18T12:25:56;0.20;;;0.20;;
52166;SDS011;38149;52.666;6.428;2023-11-18T12:28:27;0.20;;;0.20;;
52166;SDS011;38149;52.666;6.428;2023-11-18T12:30:56;0.20;;;0.20;;
52166;SDS011;38149;52.666;6.428;2023-11-18T12:33:26;0.20;;;0.20;;
52166;SDS011;38149;52.666;6.428;2023-11-18T12:42:06;0.20;;;0.20;;
52166;SDS011;38149;52.666;6.428;2023-11-18T12:44:37;0.20;;;0.20;;
52166;SDS011;38149;52.666;6.428;2023-11-18T12:47:17;0.20;;;0.20;;
52166;SDS011;38149;52.666;6.428;2023-11-18T12:49:47;0.20;;;0.20;;
52166;SDS011;38149;52.666;6.428;2023-11-18T12:52:22;0.20;;;0.20;;
52166;SDS011;38149;52.666;6.428;2023-11-18T12:54:49;0.20;;;0.20;;
52166;SDS011;38149;52.666;6.428;2023-11-18T12:57:26;0.20;;;0.20;;
52166;SDS011;38149;52.666;6.428;2023-11-18T12:59:56;0.20;;;0.20;;
52166;SDS011;38149;52.666;6.428;2023-11-18T13:02:22;0.20;;;0.20;;
52166;SDS011;38149;52.666;6.428;2023-11-18T13:04:48;0.20;;;0.20;;
52166;SDS011;38149;52.666;6.428;2023-11-18T13:07:15;0.30;;;0.30;;
52166;SDS011;38149;52.666;6.428;2023-11-18T13:09:46;0.20;;;0.20;;
52166;SDS011;38149;52.666;6.428;2023-11-18T13:12:13;0.20;;;0.20;;
52166;SDS011;38149;52.666;6.428;2023-11-18T13:14:40;0.20;;;0.20;;
52166;SDS011;38149;52.666;6.428;2023-11-18T13:17:11;0.20;;;0.20;;
52166;SDS011;38149;52.666;6.428;2023-11-18T13:19:38;0.20;;;0.20;;
52166;SDS011;38149;52.666;6.428;2023-11-18T13:22:05;0.20;;;0.20;;
52166;SDS011;38149;52.666;6.428;2023-11-18T13:24:36;0.20;;;0.20;;
52166;SDS011;38149;52.666;6.428;2023-11-18T13:27:04;0.20;;;0.20;;
52166;SDS011;38149;52.666;6.428;2023-11-18T13:29:32;0.20;;;0.20;;
52166;SDS011;38149;52.666;6.428;2023-11-18T13:32:01;0.20;;;0.20;;
52166;SDS011;38149;52.666;6.428;2023-11-18T13:34:29;0.20;;;0.20;;
52166;SDS011;38149;52.666;6.428;2023-11-18T13:37:01;0.20;;;0.20;;
52166;SDS011;38149;52.666;6.428;2023-11-18T13:39:28;0.20;;;0.20;;
52166;SDS011;38149;52.666;6.428;2023-11-18T13:41:56;0.20;;;0.20;;
52166;SDS011;38149;52.666;6.428;2023-11-18T13:44:38;0.20;;;0.20;;
52166;SDS011;38149;52.666;6.428;2023-11-18T13:47:04;0.20;;;0.20;;
52166;SDS011;38149;52.666;6.428;2023-11-18T13:49:31;0.20;;;0.20;;
52166;SDS011;38149;52.666;6.428;2023-11-18T13:52:01;0.20;;;0.20;;
52166;SDS011;38149;52.666;6.428;2023-11-18T13:54:28;0.20;;;0.20;;
52166;SDS011;38149;52.666;6.428;2023-11-18T13:56:55;0.20;;;0.20;;
52166;SDS011;38149;52.666;6.428;2023-11-18T13:59:26;0.20;;;0.20;;
52166;SDS011;38149;52.666;6.428;2023-11-18T14:01:56;0.20;;;0.20;;
52166;SDS011;38149;52.666;6.428;2023-11-18T14:04:23;0.20;;;0.20;;
52166;SDS011;38149;52.666;6.428;2023-11-18T14:06:51;0.20;;;0.20;;
52166;SDS011;38149;52.666;6.428;2023-11-18T14:09:20;0.20;;;0.20;;
52166;SDS011;38149;52.666;6.428;2023-11-18T14:11:46;0.20;;;0.20;;
52166;SDS011;38149;52.666;6.428;2023-11-18T14:14:13;0.20;;;0.20;;
52166;SDS011;38149;52.666;6.428;2023-11-18T14:16:40;0.20;;;0.20;;
52166;SDS011;38149;52.666;6.428;2023-11-18T14:19:06;0.20;;;0.20;;
52166;SDS011;38149;52.666;6.428;2023-11-18T14:21:32;0.20;;;0.20;;
52166;SDS011;38149;52.666;6.428;2023-11-18T14:23:58;0.20;;;0.20;;
52166;SDS011;38149;52.666;6.428;2023-11-18T14:26:28;0.20;;;0.20;;
52166;SDS011;38149;52.666;6.428;2023-11-18T14:28:55;0.20;;;0.20;;
52166;SDS011;38149;52.666;6.428;2023-11-18T14:31:24;0.20;;;0.20;;
52166;SDS011;38149;52.666;6.428;2023-11-18T14:33:50;0.20;;;0.20;;
52166;SDS011;38149;52.666;6.428;2023-11-18T14:36:17;0.20;;;0.20;;
52166;SDS011;38149;52.666;6.428;2023-11-18T14:38:44;0.20;;;0.20;;
52166;SDS011;38149;52.666;6.428;2023-11-18T14:41:12;0.20;;;0.20;;
52166;SDS011;38149;52.666;6.428;2023-11-18T14:43:38;0.20;;;0.20;;
52166;SDS011;38149;52.666;6.428;2023-11-18T14:46:06;0.20;;;0.20;;
52166;SDS011;38149;52.666;6.428;2023-11-18T14:48:33;0.20;;;0.20;;
52166;SDS011;38149;52.666;6.428;2023-11-18T14:51:00;0.20;;;0.20;;
52166;SDS011;38149;52.666;6.428;2023-11-18T14:53:26;0.20;;;0.20;;
52166;SDS011;38149;52.666;6.428;2023-11-18T14:55:52;0.20;;;0.20;;
52166;SDS011;38149;52.666;6.428;2023-11-18T14:58:18;0.20;;;0.20;;
52166;SDS011;38149;52.666;6.428;2023-11-18T15:00:44;0.20;;;0.20;;
52166;SDS011;38149;52.666;6.428;2023-11-18T15:03:12;0.20;;;0.20;;
52166;SDS011;38149;52.666;6.428;2023-11-18T15:05:40;0.20;;;0.20;;
52166;SDS011;38149;52.666;6.428;2023-11-18T15:08:09;0.20;;;0.20;;
52166;SDS011;38149;52.666;6.428;2023-11-18T15:10:39;0.20;;;0.20;;
52166;SDS011;38149;52.666;6.428;2023-11-18T15:13:07;0.20;;;0.20;;
52166;SDS011;38149;52.666;6.428;2023-11-18T15:15:43;0.20;;;0.20;;
52166;SDS011;38149;52.666;6.428;2023-11-18T15:18:12;0.20;;;0.20;;